createdAt,value
2022-10-22T00:00:02.500Z,96.0
2022-10-22T00:02:02.224Z,96.0
2022-10-22T00:04:02.988Z,96.0
2022-10-22T00:06:02.983Z,96.0
2022-10-22T00:08:02.275Z,96.0
2022-10-22T00:10:04.266Z,96.0
2022-10-22T00:12:02.735Z,96.0
2022-10-22T00:14:03.403Z,96.0
2022-10-22T00:16:02.206Z,96.0
2022-10-22T00:18:02.186Z,95.0
2022-10-22T00:20:02.850Z,96.0
2022-10-22T00:22:05.243Z,96.0
2022-10-22T00:24:02.857Z,96.0
2022-10-22T00:26:02.310Z,96.0
2022-10-22T00:28:03.571Z,96.0
2022-10-22T00:30:02.253Z,96.0
2022-10-22T00:32:03.149Z,96.0
2022-10-22T00:34:02.426Z,96.0
2022-10-22T00:36:03.015Z,96.0
2022-10-22T00:38:03.194Z,96.0
2022-10-22T00:40:02.383Z,96.0
2022-10-22T00:42:02.204Z,96.0
2022-10-22T00:44:05.198Z,96.0
2022-10-22T00:46:02.378Z,96.0
2022-10-22T00:48:06.891Z,96.0
2022-10-22T00:52:02.390Z,96.0
2022-10-22T00:54:07.026Z,96.0
2022-10-22T00:56:02.923Z,96.0
2022-10-22T00:58:03.577Z,96.0
2022-10-22T01:00:04.096Z,96.0
2022-10-22T01:02:02.393Z,96.0
2022-10-22T01:04:02.227Z,96.0
2022-10-22T01:06:05.760Z,96.0
2022-10-22T01:08:03.255Z,96.0
2022-10-22T01:10:08.661Z,96.0
2022-10-22T01:12:12.478Z,96.0
2022-10-22T01:14:12.921Z,96.0
2022-10-22T01:16:11.205Z,96.0
2022-10-22T01:18:08.003Z,96.0
2022-10-22T01:20:12.550Z,96.0
2022-10-22T01:22:10.238Z,96.0
2022-10-22T01:24:20.351Z,96.0
2022-10-22T01:26:13.064Z,96.0
2022-10-22T01:28:15.693Z,96.0
2022-10-22T01:30:05.739Z,96.0
2022-10-22T01:32:06.892Z,96.0
2022-10-22T01:34:04.458Z,96.0
2022-10-22T01:36:04.461Z,96.0
2022-10-22T01:38:05.938Z,96.0
2022-10-22T01:40:03.564Z,96.0
2022-10-22T01:42:02.794Z,96.0
2022-10-22T01:44:02.995Z,96.0
2022-10-22T01:46:06.171Z,96.0
2022-10-22T01:48:10.657Z,96.0
2022-10-22T01:50:21.280Z,96.0
2022-10-22T01:52:13.840Z,96.0
2022-10-22T01:54:16.409Z,96.0
2022-10-22T01:56:13.222Z,96.0
2022-10-22T01:58:12.957Z,96.0
2022-10-22T02:00:06.998Z,96.0
2022-10-22T02:02:10.874Z,96.0
2022-10-22T02:04:10.888Z,96.0
2022-10-22T02:06:11.637Z,96.0
2022-10-22T02:08:06.626Z,96.0
2022-10-22T02:10:04.323Z,96.0
2022-10-22T02:14:05.195Z,96.0
2022-10-22T02:16:07.043Z,96.0
2022-10-22T02:18:06.698Z,96.0
2022-10-22T02:20:07.689Z,96.0
2022-10-22T02:22:02.693Z,96.0
2022-10-22T02:24:02.269Z,96.0
2022-10-22T02:26:11.601Z,96.0
2022-10-22T02:28:14.077Z,96.0
2022-10-22T02:30:05.887Z,96.0
2022-10-22T02:32:05.929Z,96.0
2022-10-22T02:34:09.783Z,96.0
2022-10-22T02:36:03.587Z,96.0
2022-10-22T02:38:03.530Z,96.0
2022-10-22T02:40:02.541Z,96.0
2022-10-22T02:42:03.681Z,96.0
2022-10-22T02:44:07.253Z,96.0
2022-10-22T02:46:02.386Z,96.0
2022-10-22T02:48:03.260Z,96.0
2022-10-22T02:50:05.425Z,96.0
2022-10-22T02:52:03.067Z,96.0
2022-10-22T02:54:02.203Z,96.0
2022-10-22T02:56:02.220Z,96.0
2022-10-22T02:58:02.380Z,96.0
2022-10-22T03:00:04.215Z,96.0
2022-10-22T03:02:03.468Z,96.0
2022-10-22T03:04:02.829Z,96.0
2022-10-22T03:06:03.174Z,96.0
2022-10-22T03:08:02.275Z,96.0
2022-10-22T03:10:02.377Z,96.0
2022-10-22T03:12:02.177Z,96.0
2022-10-22T03:14:02.495Z,96.0
2022-10-22T03:16:02.835Z,96.0
2022-10-22T03:18:02.240Z,96.0
2022-10-22T03:20:02.192Z,96.0
2022-10-22T03:22:05.663Z,96.0
2022-10-22T03:24:05.919Z,96.0
2022-10-22T03:26:03.817Z,96.0
2022-10-22T03:28:05.885Z,96.0
2022-10-22T03:30:03.598Z,96.0
2022-10-22T03:32:02.877Z,96.0
2022-10-22T03:34:02.354Z,96.0
2022-10-22T03:36:03.104Z,96.0
2022-10-22T03:38:02.823Z,96.0
2022-10-22T03:40:03.733Z,96.0
2022-10-22T03:42:02.881Z,96.0
2022-10-22T03:44:03.732Z,96.0
2022-10-22T03:46:02.946Z,96.0
2022-10-22T03:48:02.418Z,96.0
2022-10-22T03:50:03.002Z,96.0
2022-10-22T03:52:06.879Z,96.0
2022-10-22T03:54:02.700Z,96.0
2022-10-22T03:56:02.868Z,96.0
2022-10-22T03:58:02.393Z,96.0
2022-10-22T04:00:03.222Z,96.0
2022-10-22T04:02:02.838Z,96.0
2022-10-22T04:04:02.158Z,96.0
2022-10-22T04:06:03.603Z,96.0
2022-10-22T04:08:02.183Z,96.0
2022-10-22T04:10:02.373Z,96.0
2022-10-22T04:12:02.556Z,96.0
2022-10-22T04:14:02.775Z,96.0
2022-10-22T04:16:11.261Z,96.0
2022-10-22T04:18:02.192Z,96.0
2022-10-22T04:20:04.327Z,96.0
2022-10-22T04:22:03.093Z,96.0
2022-10-22T04:24:02.210Z,96.0
2022-10-22T04:26:04.703Z,96.0
2022-10-22T04:28:02.684Z,96.0
2022-10-22T04:30:02.544Z,96.0
2022-10-22T04:32:02.274Z,96.0
2022-10-22T04:34:03.388Z,96.0
2022-10-22T04:36:06.629Z,96.0
2022-10-22T04:38:02.471Z,96.0
2022-10-22T04:40:02.915Z,96.0
2022-10-22T04:42:02.425Z,96.0
2022-10-22T04:44:02.559Z,96.0
2022-10-22T04:46:03.120Z,96.0
2022-10-22T04:48:02.805Z,96.0
2022-10-22T04:50:02.395Z,96.0
2022-10-22T04:52:02.792Z,96.0
2022-10-22T04:54:02.757Z,96.0
2022-10-22T04:56:13.619Z,96.0
2022-10-22T04:58:02.918Z,96.0
2022-10-22T05:00:02.949Z,96.0
2022-10-22T05:02:02.479Z,96.0
2022-10-22T05:04:05.045Z,96.0
2022-10-22T05:06:02.793Z,96.0
2022-10-22T05:08:02.943Z,96.0
2022-10-22T05:10:02.371Z,96.0
2022-10-22T05:12:02.179Z,96.0
2022-10-22T05:14:05.473Z,96.0
2022-10-22T05:16:02.869Z,96.0
2022-10-22T05:18:02.456Z,96.0
2022-10-22T05:20:02.262Z,96.0
2022-10-22T05:22:05.073Z,96.0
2022-10-22T05:24:03.619Z,96.0
2022-10-22T05:26:03.026Z,96.0
2022-10-22T05:28:02.145Z,96.0
2022-10-22T05:30:02.231Z,96.0
2022-10-22T05:32:02.387Z,96.0
2022-10-22T05:34:02.485Z,96.0
2022-10-22T05:36:04.950Z,96.0
2022-10-22T05:38:02.206Z,96.0
2022-10-22T05:40:12.729Z,96.0
2022-10-22T05:42:03.197Z,96.0
2022-10-22T05:44:02.829Z,96.0
2022-10-22T05:46:04.477Z,96.0
2022-10-22T05:48:02.172Z,96.0
2022-10-22T05:50:02.681Z,96.0
2022-10-22T05:52:02.704Z,96.0
2022-10-22T05:54:07.263Z,96.0
2022-10-22T05:56:04.389Z,96.0
2022-10-22T05:58:03.625Z,96.0
2022-10-22T06:00:03.169Z,96.0
2022-10-22T06:02:02.263Z,96.0
2022-10-22T06:04:05.538Z,96.0
2022-10-22T06:06:06.252Z,96.0
2022-10-22T06:08:03.079Z,96.0
2022-10-22T06:10:03.080Z,96.0
2022-10-22T06:12:03.224Z,96.0
2022-10-22T06:14:02.779Z,96.0
2022-10-22T06:16:02.237Z,96.0
2022-10-22T06:18:02.481Z,96.0
2022-10-22T06:20:02.269Z,96.0
2022-10-22T06:22:03.472Z,96.0
2022-10-22T06:24:02.283Z,96.0
2022-10-22T06:26:02.935Z,96.0
2022-10-22T06:28:02.183Z,96.0
2022-10-22T06:30:02.462Z,96.0
2022-10-22T06:32:02.267Z,96.0
2022-10-22T06:34:02.560Z,96.0
2022-10-22T06:36:07.668Z,96.0
2022-10-22T06:38:02.197Z,96.0
2022-10-22T06:40:02.243Z,96.0
2022-10-22T06:42:02.916Z,96.0
2022-10-22T06:44:02.234Z,96.0
2022-10-22T06:46:04.663Z,96.0
2022-10-22T06:48:02.232Z,96.0
2022-10-22T06:50:02.211Z,96.0
2022-10-22T06:52:02.797Z,96.0
2022-10-22T06:54:02.403Z,96.0
2022-10-22T06:56:05.497Z,96.0
2022-10-22T06:58:02.569Z,96.0
2022-10-22T07:00:02.474Z,96.0
2022-10-22T07:04:04.131Z,96.0
2022-10-22T07:06:04.006Z,96.0
2022-10-22T07:08:02.209Z,96.0
2022-10-22T07:10:02.356Z,96.0
2022-10-22T07:12:02.778Z,96.0
2022-10-22T07:14:02.207Z,96.0
2022-10-22T07:16:03.629Z,96.0
2022-10-22T07:18:04.326Z,96.0
2022-10-22T07:20:02.245Z,96.0
2022-10-22T07:22:03.254Z,96.0
2022-10-22T07:24:02.280Z,96.0
2022-10-22T07:26:04.152Z,96.0
2022-10-22T07:28:02.193Z,96.0
2022-10-22T07:30:03.450Z,96.0
2022-10-22T07:32:02.308Z,97.0
2022-10-22T07:34:02.656Z,97.0
2022-10-22T07:36:05.037Z,97.0
2022-10-22T07:38:02.778Z,97.0
2022-10-22T07:40:04.075Z,97.0
2022-10-22T07:42:02.203Z,97.0
2022-10-22T07:44:02.219Z,97.0
2022-10-22T07:46:02.582Z,97.0
2022-10-22T07:48:02.329Z,97.0
2022-10-22T07:50:02.280Z,97.0
2022-10-22T07:52:02.252Z,97.0
2022-10-22T07:54:02.286Z,97.0
2022-10-22T07:56:02.762Z,97.0
2022-10-22T07:58:02.554Z,97.0
2022-10-22T08:00:02.441Z,97.0
2022-10-22T08:02:02.223Z,97.0
2022-10-22T08:04:02.753Z,97.0
2022-10-22T08:06:03.238Z,97.0
2022-10-22T08:08:02.191Z,97.0
2022-10-22T08:10:02.560Z,97.0
2022-10-22T08:12:02.211Z,97.0
2022-10-22T08:14:02.253Z,97.0
2022-10-22T08:16:03.215Z,97.0
2022-10-22T08:18:02.792Z,97.0
2022-10-22T08:20:02.885Z,97.0
2022-10-22T08:22:03.344Z,97.0
2022-10-22T08:24:02.257Z,97.0
2022-10-22T08:26:03.041Z,97.0
2022-10-22T08:28:02.174Z,97.0
2022-10-22T08:30:02.587Z,97.0
2022-10-22T08:32:02.870Z,97.0
2022-10-22T08:34:05.173Z,97.0
2022-10-22T08:36:02.949Z,97.0
2022-10-22T08:38:02.745Z,97.0
2022-10-22T08:40:02.222Z,97.0
2022-10-22T08:42:16.482Z,97.0
2022-10-22T08:44:20.873Z,97.0
2022-10-22T08:46:15.326Z,97.0
2022-10-22T08:48:13.548Z,97.0
2022-10-22T08:50:03.188Z,97.0
2022-10-22T08:52:02.987Z,97.0
2022-10-22T08:54:17.137Z,97.0
2022-10-22T08:56:02.220Z,97.0
2022-10-22T08:58:17.219Z,97.0
2022-10-22T09:00:10.757Z,97.0
2022-10-22T09:02:04.967Z,97.0
2022-10-22T09:04:11.155Z,97.0
2022-10-22T09:06:09.162Z,97.0
2022-10-22T09:08:02.462Z,97.0
2022-10-22T09:10:04.413Z,97.0
2022-10-22T09:12:04.657Z,97.0
2022-10-22T09:14:03.860Z,97.0
2022-10-22T09:16:15.204Z,97.0
2022-10-22T09:18:17.045Z,97.0
2022-10-22T09:20:15.718Z,97.0
2022-10-22T09:22:11.199Z,97.0
2022-10-22T09:24:08.708Z,97.0
2022-10-22T09:26:02.610Z,97.0
2022-10-22T09:28:02.420Z,97.0
2022-10-22T09:30:02.426Z,97.0
2022-10-22T09:32:02.809Z,97.0
2022-10-22T09:34:07.081Z,97.0
2022-10-22T09:36:05.316Z,97.0
2022-10-22T09:38:09.272Z,97.0
2022-10-22T09:40:06.563Z,97.0
2022-10-22T09:42:02.300Z,97.0
2022-10-22T09:44:02.215Z,97.0
2022-10-22T09:46:05.406Z,97.0
2022-10-22T09:48:10.962Z,97.0
2022-10-22T09:50:17.314Z,97.0
2022-10-22T09:52:03.072Z,97.0
2022-10-22T09:54:12.741Z,97.0
2022-10-22T09:56:09.482Z,97.0
2022-10-22T09:58:02.907Z,97.0
2022-10-22T10:00:02.394Z,96.0
2022-10-22T10:02:20.417Z,97.0
2022-10-22T10:04:09.385Z,97.0
2022-10-22T10:06:06.000Z,97.0
2022-10-22T10:08:12.925Z,96.0
2022-10-22T10:10:13.135Z,96.0
2022-10-22T10:12:16.096Z,97.0
2022-10-22T10:14:12.166Z,96.0
2022-10-22T10:16:08.542Z,97.0
2022-10-22T10:18:14.628Z,97.0
2022-10-22T10:20:19.496Z,97.0
2022-10-22T10:22:13.087Z,97.0
2022-10-22T10:24:15.036Z,97.0
2022-10-22T10:26:09.968Z,97.0
2022-10-22T10:28:13.902Z,97.0
2022-10-22T10:30:09.921Z,97.0
2022-10-22T10:32:15.503Z,97.0
2022-10-22T10:34:12.590Z,97.0
2022-10-22T10:36:10.096Z,97.0
2022-10-22T10:38:19.477Z,97.0
2022-10-22T10:40:18.961Z,97.0
2022-10-22T10:42:11.578Z,97.0
2022-10-22T10:44:21.324Z,96.0
2022-10-22T10:46:09.887Z,96.0
2022-10-22T10:48:17.882Z,96.0
2022-10-22T10:50:18.609Z,96.0
2022-10-22T10:52:12.065Z,96.0
2022-10-22T10:54:13.697Z,97.0
2022-10-22T10:56:12.160Z,97.0
2022-10-22T10:58:11.788Z,97.0
2022-10-22T11:00:06.871Z,96.0
2022-10-22T11:02:18.343Z,96.0
2022-10-22T11:04:14.209Z,96.0
2022-10-22T11:06:04.453Z,96.0
2022-10-22T11:08:06.596Z,96.0
2022-10-22T11:10:09.851Z,96.0
2022-10-22T11:12:08.799Z,96.0
2022-10-22T11:14:10.977Z,96.0
2022-10-22T11:16:07.420Z,96.0
2022-10-22T11:18:10.781Z,96.0
2022-10-22T11:20:12.384Z,97.0
2022-10-22T11:22:06.070Z,97.0
2022-10-22T11:24:12.663Z,97.0
2022-10-22T11:26:05.675Z,96.0
2022-10-22T11:28:11.327Z,96.0
2022-10-22T11:30:04.453Z,97.0
2022-10-22T11:32:03.983Z,97.0
2022-10-22T11:34:32.142Z,97.0
2022-10-22T11:36:06.357Z,96.0
2022-10-22T11:38:05.377Z,96.0
2022-10-22T11:40:07.510Z,96.0
2022-10-22T11:42:06.243Z,97.0
2022-10-22T11:44:12.435Z,97.0
2022-10-22T11:46:18.096Z,97.0
2022-10-22T11:48:14.386Z,97.0
2022-10-22T11:50:21.277Z,96.0
2022-10-22T11:52:21.216Z,96.0
2022-10-22T11:54:12.255Z,96.0
2022-10-22T11:56:21.306Z,96.0
2022-10-22T11:58:21.223Z,97.0
2022-10-22T12:00:10.145Z,97.0
2022-10-22T12:02:02.209Z,97.0
2022-10-22T12:04:21.469Z,97.0
2022-10-22T12:06:11.176Z,97.0
2022-10-22T12:08:16.222Z,97.0
2022-10-22T12:10:06.238Z,97.0
2022-10-22T12:12:10.590Z,97.0
2022-10-22T12:14:16.418Z,97.0
2022-10-22T12:16:04.964Z,97.0
2022-10-22T12:18:05.978Z,97.0
2022-10-22T12:20:12.454Z,97.0
2022-10-22T12:22:13.844Z,97.0
2022-10-22T12:24:03.864Z,97.0
2022-10-22T12:26:05.050Z,97.0
2022-10-22T12:28:02.343Z,97.0
2022-10-22T12:30:12.789Z,97.0
2022-10-22T12:32:04.450Z,97.0
2022-10-22T12:34:02.760Z,97.0
2022-10-22T12:36:03.732Z,97.0
2022-10-22T12:38:12.444Z,97.0
2022-10-22T12:40:02.151Z,97.0
2022-10-22T12:42:05.464Z,97.0
2022-10-22T12:44:05.153Z,97.0
2022-10-22T12:46:02.286Z,97.0
2022-10-22T12:48:05.333Z,97.0
2022-10-22T12:50:04.863Z,97.0
2022-10-22T12:52:05.031Z,97.0
2022-10-22T12:54:09.619Z,97.0
2022-10-22T12:56:05.151Z,97.0
2022-10-22T12:58:06.400Z,97.0
2022-10-22T13:00:03.705Z,97.0
2022-10-22T13:02:07.872Z,97.0
2022-10-22T13:04:17.099Z,97.0
2022-10-22T13:06:13.208Z,97.0
2022-10-22T13:08:04.916Z,97.0
2022-10-22T13:10:02.287Z,97.0
2022-10-22T13:12:05.597Z,97.0
2022-10-22T13:14:04.233Z,97.0
2022-10-22T13:16:14.145Z,97.0
2022-10-22T13:18:05.793Z,97.0
2022-10-22T13:20:04.947Z,97.0
2022-10-22T13:22:02.182Z,97.0
2022-10-22T13:24:12.871Z,97.0
2022-10-22T13:26:12.556Z,97.0
2022-10-22T13:28:13.041Z,97.0
2022-10-22T13:30:10.510Z,97.0
2022-10-22T13:32:02.873Z,97.0
2022-10-22T13:34:10.888Z,97.0
2022-10-22T13:36:03.998Z,97.0
2022-10-22T13:38:03.459Z,97.0
2022-10-22T13:40:02.373Z,97.0
2022-10-22T13:42:02.329Z,97.0
2022-10-22T13:44:02.205Z,97.0
2022-10-22T13:46:02.225Z,97.0
2022-10-22T13:48:02.621Z,97.0
2022-10-22T13:50:07.534Z,97.0
2022-10-22T13:52:03.570Z,97.0
2022-10-22T13:54:04.607Z,97.0
2022-10-22T13:56:02.213Z,97.0
2022-10-22T13:58:11.624Z,97.0
2022-10-22T14:00:02.317Z,97.0
2022-10-22T14:02:06.045Z,97.0
2022-10-22T14:04:05.775Z,97.0
2022-10-22T14:06:02.423Z,97.0
2022-10-22T14:08:03.273Z,97.0
2022-10-22T14:10:02.716Z,97.0
2022-10-22T14:12:02.216Z,97.0
2022-10-22T14:14:04.518Z,97.0
2022-10-22T14:16:05.572Z,97.0
2022-10-22T14:18:05.752Z,97.0
2022-10-22T14:20:02.254Z,97.0
2022-10-22T14:22:02.732Z,97.0
2022-10-22T14:24:02.204Z,97.0
2022-10-22T14:26:03.091Z,97.0
2022-10-22T14:28:02.191Z,97.0
2022-10-22T14:30:02.476Z,97.0
2022-10-22T14:32:02.224Z,97.0
2022-10-22T14:34:02.423Z,97.0
2022-10-22T14:36:03.169Z,97.0
2022-10-22T14:38:02.231Z,97.0
2022-10-22T14:40:02.247Z,97.0
2022-10-22T14:42:02.456Z,97.0
2022-10-22T14:44:02.293Z,97.0
2022-10-22T14:46:02.744Z,97.0
2022-10-22T14:48:02.415Z,97.0
2022-10-22T14:50:02.207Z,97.0
2022-10-22T14:52:02.226Z,97.0
2022-10-22T14:54:02.406Z,97.0
2022-10-22T14:56:02.318Z,97.0
2022-10-22T14:58:02.751Z,97.0
2022-10-22T15:00:04.056Z,97.0
2022-10-22T15:02:02.198Z,97.0
2022-10-22T15:04:03.279Z,97.0
2022-10-22T15:06:03.657Z,97.0
2022-10-22T15:08:02.984Z,97.0
2022-10-22T15:10:02.454Z,97.0
2022-10-22T15:12:02.267Z,97.0
2022-10-22T15:14:02.975Z,97.0
2022-10-22T15:16:05.547Z,97.0
2022-10-22T15:18:02.439Z,97.0
2022-10-22T15:20:03.905Z,97.0
2022-10-22T15:22:02.369Z,97.0
2022-10-22T15:24:02.279Z,97.0
2022-10-22T15:26:02.959Z,97.0
2022-10-22T15:28:09.458Z,97.0
2022-10-22T15:32:03.044Z,97.0
2022-10-22T15:34:02.198Z,97.0
2022-10-22T15:36:11.252Z,97.0
2022-10-22T15:38:02.866Z,97.0
2022-10-22T15:40:03.333Z,97.0
2022-10-22T15:42:02.714Z,97.0
2022-10-22T15:44:02.828Z,97.0
2022-10-22T15:46:11.717Z,97.0
2022-10-22T15:48:02.170Z,97.0
2022-10-22T15:50:02.306Z,97.0
2022-10-22T15:52:03.369Z,97.0
2022-10-22T15:54:06.415Z,97.0
2022-10-22T15:56:02.246Z,97.0
2022-10-22T15:58:03.404Z,97.0
2022-10-22T16:00:02.249Z,97.0
2022-10-22T16:02:03.310Z,97.0
2022-10-22T16:04:03.025Z,97.0
2022-10-22T16:06:03.502Z,97.0
2022-10-22T16:08:02.221Z,97.0
2022-10-22T16:10:02.279Z,97.0
2022-10-22T16:12:02.751Z,97.0
2022-10-22T16:14:02.910Z,97.0
2022-10-22T16:16:06.768Z,97.0
2022-10-22T16:18:02.379Z,97.0
2022-10-22T16:20:02.409Z,97.0
2022-10-22T16:22:02.994Z,97.0
2022-10-22T16:24:06.103Z,97.0
2022-10-22T16:26:03.443Z,97.0
2022-10-22T16:28:02.411Z,97.0
2022-10-22T16:30:02.333Z,97.0
2022-10-22T16:32:02.289Z,97.0
2022-10-22T16:34:02.722Z,97.0
2022-10-22T16:36:02.959Z,97.0
2022-10-22T16:38:02.242Z,97.0
2022-10-22T16:40:05.838Z,97.0
2022-10-22T16:42:02.938Z,97.0
2022-10-22T16:44:05.668Z,97.0
2022-10-22T16:46:02.573Z,97.0
2022-10-22T16:48:02.246Z,97.0
2022-10-22T16:50:02.901Z,97.0
2022-10-22T16:52:02.352Z,97.0
2022-10-22T16:54:04.638Z,97.0
2022-10-22T16:56:03.305Z,97.0
2022-10-22T16:58:02.985Z,97.0
2022-10-22T17:00:03.745Z,97.0
2022-10-22T17:04:02.334Z,97.0
2022-10-22T17:06:04.021Z,98.0
2022-10-22T17:08:02.779Z,98.0
2022-10-22T17:10:04.266Z,98.0
2022-10-22T17:12:02.920Z,98.0
2022-10-22T17:14:03.230Z,98.0
2022-10-22T17:16:03.830Z,98.0
2022-10-22T17:18:03.659Z,98.0
2022-10-22T17:20:03.008Z,98.0
2022-10-22T17:22:02.252Z,97.0
2022-10-22T17:24:02.750Z,98.0
2022-10-22T17:26:06.148Z,97.0
2022-10-22T17:28:02.788Z,97.0
2022-10-22T17:30:02.347Z,97.0
2022-10-22T17:32:02.293Z,98.0
2022-10-22T17:34:02.242Z,98.0
2022-10-22T17:36:06.703Z,98.0
2022-10-22T17:38:02.773Z,98.0
2022-10-22T17:40:02.415Z,98.0
2022-10-22T17:42:02.402Z,98.0
2022-10-22T17:44:03.759Z,98.0
2022-10-22T17:46:05.547Z,97.0
2022-10-22T17:48:02.821Z,97.0
2022-10-22T17:50:03.686Z,98.0
2022-10-22T17:52:02.209Z,97.0
2022-10-22T17:54:04.677Z,97.0
2022-10-22T17:56:06.613Z,97.0
2022-10-22T17:58:02.993Z,97.0
2022-10-22T18:00:02.324Z,97.0
2022-10-22T18:02:03.621Z,97.0
2022-10-22T18:04:05.470Z,97.0
2022-10-22T18:06:10.673Z,97.0
2022-10-22T18:08:06.957Z,98.0
2022-10-22T18:10:02.390Z,98.0
2022-10-22T18:12:02.731Z,98.0
2022-10-22T18:14:03.207Z,98.0
2022-10-22T18:16:03.449Z,98.0
2022-10-22T18:18:03.289Z,98.0
2022-10-22T18:20:03.248Z,98.0
2022-10-22T18:22:02.210Z,98.0
2022-10-22T18:24:02.159Z,98.0
2022-10-22T18:26:04.601Z,98.0
2022-10-22T18:28:02.178Z,98.0
2022-10-22T18:30:02.572Z,98.0
2022-10-22T18:32:08.288Z,98.0
2022-10-22T18:34:02.172Z,98.0
2022-10-22T18:36:05.765Z,98.0
2022-10-22T18:38:02.318Z,98.0
2022-10-22T18:40:02.205Z,98.0
2022-10-22T18:42:05.812Z,98.0
2022-10-22T18:44:04.745Z,98.0
2022-10-22T18:46:05.789Z,98.0
2022-10-22T18:48:02.783Z,98.0
2022-10-22T18:50:02.802Z,98.0
2022-10-22T18:52:02.844Z,98.0
2022-10-22T18:54:11.641Z,97.0
2022-10-22T18:56:05.546Z,97.0
2022-10-22T18:58:02.162Z,98.0
2022-10-22T19:00:02.272Z,98.0
2022-10-22T19:02:02.289Z,97.0
2022-10-22T19:04:02.701Z,97.0
2022-10-22T19:06:02.612Z,97.0
2022-10-22T19:08:02.677Z,97.0
2022-10-22T19:10:02.244Z,97.0
2022-10-22T19:12:02.276Z,97.0
2022-10-22T19:14:02.303Z,97.0
2022-10-22T19:16:04.021Z,97.0
2022-10-22T19:18:02.468Z,97.0
2022-10-22T19:20:02.888Z,97.0
2022-10-22T19:22:02.179Z,97.0
2022-10-22T19:24:02.513Z,97.0
2022-10-22T19:26:06.133Z,97.0
2022-10-22T19:28:03.143Z,97.0
2022-10-22T19:30:02.520Z,97.0
2022-10-22T19:32:02.713Z,97.0
2022-10-22T19:34:03.180Z,97.0
2022-10-22T19:36:05.400Z,97.0
2022-10-22T19:38:02.945Z,97.0
2022-10-22T19:40:02.187Z,97.0
2022-10-22T19:42:03.777Z,97.0
2022-10-22T19:44:02.979Z,97.0
2022-10-22T19:46:04.567Z,97.0
2022-10-22T19:48:02.146Z,97.0
2022-10-22T19:50:02.400Z,97.0
2022-10-22T19:52:02.347Z,97.0
2022-10-22T19:54:05.357Z,97.0
2022-10-22T19:56:06.393Z,97.0
2022-10-22T19:58:02.250Z,97.0
2022-10-22T20:00:03.079Z,97.0
2022-10-22T20:02:02.807Z,97.0
2022-10-22T20:04:03.154Z,97.0
2022-10-22T20:06:03.751Z,97.0
2022-10-22T20:08:02.272Z,97.0
2022-10-22T20:10:02.252Z,97.0
2022-10-22T20:12:03.127Z,96.0
2022-10-22T20:14:03.329Z,95.0
2022-10-22T20:16:04.195Z,95.0
2022-10-22T20:18:02.349Z,95.0
2022-10-22T20:20:02.249Z,95.0
2022-10-22T20:22:02.143Z,95.0
2022-10-22T20:24:02.388Z,95.0
2022-10-22T20:26:02.349Z,95.0
2022-10-22T20:28:03.204Z,95.0
2022-10-22T20:30:02.724Z,95.0
2022-10-22T20:32:04.272Z,93.0
2022-10-22T20:34:03.724Z,94.0
2022-10-22T20:36:04.876Z,94.0
2022-10-22T20:38:02.895Z,94.0
2022-10-22T20:40:03.391Z,94.0
2022-10-22T20:42:02.999Z,94.0
2022-10-22T20:44:02.789Z,93.0
2022-10-22T20:46:04.447Z,93.0
2022-10-22T20:48:02.966Z,94.0
2022-10-22T20:50:02.940Z,94.0
2022-10-22T20:52:02.290Z,95.0
2022-10-22T20:54:02.442Z,93.0
2022-10-22T20:56:03.029Z,92.0
2022-10-22T20:58:02.321Z,91.0
2022-10-22T21:00:02.254Z,91.0
2022-10-22T21:02:03.475Z,92.0
2022-10-22T21:04:02.209Z,93.0
2022-10-22T21:06:03.333Z,94.0
2022-10-22T21:08:04.447Z,93.0
2022-10-22T21:10:02.194Z,92.0
2022-10-22T21:12:02.908Z,92.0
2022-10-22T21:14:03.633Z,92.0
2022-10-22T21:16:07.179Z,91.0
2022-10-22T21:18:02.393Z,92.0
2022-10-22T21:20:02.564Z,92.0
2022-10-22T21:22:02.189Z,92.0
2022-10-22T21:24:02.220Z,92.0
2022-10-22T21:26:02.351Z,92.0
2022-10-22T21:28:02.197Z,92.0
2022-10-22T21:30:02.475Z,92.0
2022-10-22T21:32:02.784Z,93.0
2022-10-22T21:34:02.724Z,93.0
2022-10-22T21:36:02.142Z,94.0
2022-10-22T21:38:02.402Z,94.0
2022-10-22T21:40:04.213Z,95.0
2022-10-22T21:42:03.158Z,95.0
2022-10-22T21:44:02.425Z,95.0
2022-10-22T21:46:06.938Z,95.0
2022-10-22T21:48:02.162Z,95.0
2022-10-22T21:50:02.418Z,95.0
2022-10-22T21:52:02.614Z,95.0
2022-10-22T21:54:02.754Z,95.0
2022-10-22T21:56:03.566Z,95.0
2022-10-22T21:58:02.219Z,95.0
2022-10-22T22:00:02.249Z,95.0
2022-10-22T22:02:05.658Z,95.0
2022-10-22T22:04:03.003Z,95.0
2022-10-22T22:06:05.984Z,95.0
2022-10-22T22:08:02.200Z,95.0
2022-10-22T22:10:02.234Z,95.0
2022-10-22T22:12:02.242Z,95.0
2022-10-22T22:14:02.418Z,95.0
2022-10-22T22:16:04.202Z,95.0
2022-10-22T22:18:02.409Z,95.0
2022-10-22T22:20:05.454Z,95.0
2022-10-22T22:22:02.149Z,95.0
2022-10-22T22:24:03.696Z,95.0
2022-10-22T22:26:02.989Z,95.0
2022-10-22T22:28:02.371Z,94.0
2022-10-22T22:30:02.400Z,94.0
2022-10-22T22:32:02.431Z,94.0
2022-10-22T22:34:04.485Z,94.0
2022-10-22T22:36:02.171Z,94.0
2022-10-22T22:38:02.276Z,94.0
2022-10-22T22:40:02.236Z,94.0
2022-10-22T22:42:02.406Z,94.0
2022-10-22T22:44:02.474Z,93.0
2022-10-22T22:46:04.488Z,93.0
2022-10-22T22:48:02.225Z,94.0
2022-10-22T22:50:02.411Z,94.0
2022-10-22T22:52:02.193Z,94.0
2022-10-22T22:54:02.549Z,95.0
2022-10-22T22:56:05.059Z,95.0
2022-10-22T22:58:02.749Z,95.0
2022-10-22T23:00:02.367Z,95.0
2022-10-22T23:02:02.241Z,94.0
2022-10-22T23:04:04.563Z,94.0
2022-10-22T23:06:02.402Z,94.0
2022-10-22T23:08:02.282Z,94.0
2022-10-22T23:10:02.286Z,94.0
2022-10-22T23:12:02.457Z,93.0
2022-10-22T23:14:05.024Z,93.0
2022-10-22T23:16:06.712Z,92.0
2022-10-22T23:18:02.567Z,92.0
2022-10-22T23:20:03.395Z,93.0
2022-10-22T23:22:02.287Z,93.0
2022-10-22T23:24:05.074Z,92.0
2022-10-22T23:26:02.219Z,92.0
2022-10-22T23:28:02.180Z,92.0
2022-10-22T23:30:02.571Z,92.0
2022-10-22T23:32:03.923Z,93.0
2022-10-22T23:34:02.900Z,93.0
2022-10-22T23:36:02.622Z,94.0
2022-10-22T23:38:02.273Z,94.0
2022-10-22T23:40:02.183Z,94.0
2022-10-22T23:42:02.599Z,94.0
2022-10-22T23:44:02.831Z,94.0
2022-10-22T23:46:03.151Z,93.0
2022-10-22T23:48:02.462Z,93.0
2022-10-22T23:50:02.271Z,93.0
2022-10-22T23:52:02.177Z,93.0
2022-10-22T23:54:05.567Z,93.0
2022-10-22T23:56:05.590Z,94.0
2022-10-22T23:58:02.165Z,94.0
